Fonda, Iowa
Current Conditions -  °F | °C
As of 7:15 AM on Thursday 23 Oct 2014 (Local Time) from KSLB Reporting Station
Overcast Overcast  
Wind Chill: 54°   Ceiling: 400
Heat Index: 54°   Visibility: 7mi
Dew Point: 54°   Wind: 5mph
Humidity: 100%   Direction: 320°NW
Pressure: 30.03"   Gusts: NA
Location:  42.58°N, 94.85°W
Report Text: KSLB 231215Z AUTO 32004KT 7SM OVC004 12/12 A3003 RMK AO2
Loading
Personal Weather Stations






























Interactive Weather Map
Tropical Storm Tracking
New forecast layout! Learn more

10-Day Weather Forecast

Advertisements
Track Severe Weather on mobile